sensor_id;sensor_type;location;lat;lon;timestamp;P1;durP1;ratioP1;P2;durP2;ratioP2
61038;SDS011;46919;45.816;3.104;2022-10-24T00:00:57;14.52;;;3.60;;
61038;SDS011;46919;45.816;3.104;2022-10-24T00:03:23;16.58;;;4.00;;
61038;SDS011;46919;45.816;3.104;2022-10-24T00:05:49;11.00;;;3.20;;
61038;SDS011;46919;45.816;3.104;2022-10-24T00:08:15;8.40;;;3.58;;
61038;SDS011;46919;45.816;3.104;2022-10-24T00:10:42;12.23;;;3.47;;
61038;SDS011;46919;45.816;3.104;2022-10-24T00:13:09;11.23;;;3.78;;
61038;SDS011;46919;45.816;3.104;2022-10-24T00:15:36;11.85;;;3.70;;
61038;SDS011;46919;45.816;3.104;2022-10-24T00:18:01;8.57;;;2.97;;
61038;SDS011;46919;45.816;3.104;2022-10-24T00:20:27;11.55;;;3.47;;
61038;SDS011;46919;45.816;3.104;2022-10-24T00:22:53;11.63;;;3.22;;
61038;SDS011;46919;45.816;3.104;2022-10-24T00:25:18;11.68;;;3.30;;
61038;SDS011;46919;45.816;3.104;2022-10-24T00:27:44;9.98;;;3.08;;
61038;SDS011;46919;45.816;3.104;2022-10-24T00:30:09;9.50;;;3.05;;
61038;SDS011;46919;45.816;3.104;2022-10-24T00:32:35;10.23;;;3.58;;
61038;SDS011;46919;45.816;3.104;2022-10-24T00:35:00;13.48;;;3.30;;
61038;SDS011;46919;45.816;3.104;2022-10-24T00:37:26;12.38;;;3.45;;
61038;SDS011;46919;45.816;3.104;2022-10-24T00:39:51;8.18;;;2.90;;
61038;SDS011;46919;45.816;3.104;2022-10-24T00:42:16;10.95;;;3.33;;
61038;SDS011;46919;45.816;3.104;2022-10-24T00:44:42;10.82;;;2.60;;
61038;SDS011;46919;45.816;3.104;2022-10-24T00:47:18;11.55;;;2.75;;
61038;SDS011;46919;45.816;3.104;2022-10-24T00:52:16;11.10;;;2.85;;
61038;SDS011;46919;45.816;3.104;2022-10-24T00:54:45;8.75;;;3.15;;
61038;SDS011;46919;45.816;3.104;2022-10-24T00:57:28;12.85;;;2.88;;
61038;SDS011;46919;45.816;3.104;2022-10-24T01:00:01;10.48;;;2.80;;
61038;SDS011;46919;45.816;3.104;2022-10-24T01:04:57;9.27;;;2.70;;
61038;SDS011;46919;45.816;3.104;2022-10-24T01:10:21;14.73;;;3.25;;
61038;SDS011;46919;45.816;3.104;2022-10-24T01:16:26;12.55;;;3.05;;
61038;SDS011;46919;45.816;3.104;2022-10-24T01:21:25;12.07;;;2.75;;
61038;SDS011;46919;45.816;3.104;2022-10-24T01:34:46;9.57;;;2.95;;
61038;SDS011;46919;45.816;3.104;2022-10-24T01:37:19;11.82;;;3.13;;
61038;SDS011;46919;45.816;3.104;2022-10-24T01:40:01;9.32;;;2.97;;
61038;SDS011;46919;45.816;3.104;2022-10-24T01:42:31;11.88;;;3.17;;
61038;SDS011;46919;45.816;3.104;2022-10-24T01:45:00;10.52;;;2.75;;
61038;SDS011;46919;45.816;3.104;2022-10-24T01:47:29;11.50;;;3.00;;
61038;SDS011;46919;45.816;3.104;2022-10-24T01:50:03;8.38;;;2.90;;
61038;SDS011;46919;45.816;3.104;2022-10-24T01:52:33;11.00;;;2.78;;
61038;SDS011;46919;45.816;3.104;2022-10-24T01:55:01;11.05;;;3.00;;
61038;SDS011;46919;45.816;3.104;2022-10-24T01:57:29;11.68;;;3.30;;
61038;SDS011;46919;45.816;3.104;2022-10-24T01:59:56;13.38;;;3.30;;
61038;SDS011;46919;45.816;3.104;2022-10-24T02:02:29;10.75;;;3.22;;
61038;SDS011;46919;45.816;3.104;2022-10-24T02:07:33;13.50;;;3.33;;
61038;SDS011;46919;45.816;3.104;2022-10-24T02:10:05;8.48;;;3.00;;
61038;SDS011;46919;45.816;3.104;2022-10-24T02:15:06;11.27;;;2.80;;
61038;SDS011;46919;45.816;3.104;2022-10-24T02:17:38;12.93;;;2.65;;
61038;SDS011;46919;45.816;3.104;2022-10-24T02:20:03;9.77;;;3.03;;
61038;SDS011;46919;45.816;3.104;2022-10-24T02:22:37;7.65;;;2.55;;
61038;SDS011;46919;45.816;3.104;2022-10-24T02:25:17;10.27;;;2.83;;
61038;SDS011;46919;45.816;3.104;2022-10-24T02:30:20;10.40;;;2.67;;
61038;SDS011;46919;45.816;3.104;2022-10-24T02:32:55;6.05;;;2.72;;
61038;SDS011;46919;45.816;3.104;2022-10-24T02:35:27;8.27;;;2.38;;
61038;SDS011;46919;45.816;3.104;2022-10-24T02:37:59;11.33;;;2.47;;
61038;SDS011;46919;45.816;3.104;2022-10-24T02:40:28;14.50;;;3.00;;
61038;SDS011;46919;45.816;3.104;2022-10-24T02:42:55;12.30;;;2.50;;
61038;SDS011;46919;45.816;3.104;2022-10-24T02:45:23;10.80;;;2.58;;
61038;SDS011;46919;45.816;3.104;2022-10-24T02:47:49;7.63;;;2.45;;
61038;SDS011;46919;45.816;3.104;2022-10-24T02:50:19;6.95;;;2.55;;
61038;SDS011;46919;45.816;3.104;2022-10-24T02:52:45;6.10;;;2.08;;
61038;SDS011;46919;45.816;3.104;2022-10-24T02:55:11;10.45;;;2.00;;
61038;SDS011;46919;45.816;3.104;2022-10-24T02:57:37;8.02;;;2.17;;
61038;SDS011;46919;45.816;3.104;2022-10-24T03:00:03;6.75;;;2.50;;
61038;SDS011;46919;45.816;3.104;2022-10-24T03:02:30;8.25;;;2.40;;
61038;SDS011;46919;45.816;3.104;2022-10-24T03:04:55;8.70;;;2.10;;
61038;SDS011;46919;45.816;3.104;2022-10-24T03:07:20;8.00;;;2.28;;
61038;SDS011;46919;45.816;3.104;2022-10-24T03:09:46;7.90;;;2.03;;
61038;SDS011;46919;45.816;3.104;2022-10-24T03:12:14;9.52;;;2.60;;
61038;SDS011;46919;45.816;3.104;2022-10-24T03:14:41;10.15;;;2.70;;
61038;SDS011;46919;45.816;3.104;2022-10-24T03:17:07;8.77;;;2.40;;
61038;SDS011;46919;45.816;3.104;2022-10-24T03:19:32;8.45;;;2.05;;
61038;SDS011;46919;45.816;3.104;2022-10-24T03:21:58;7.25;;;2.45;;
61038;SDS011;46919;45.816;3.104;2022-10-24T03:24:23;6.40;;;1.98;;
61038;SDS011;46919;45.816;3.104;2022-10-24T03:26:49;11.98;;;2.25;;
61038;SDS011;46919;45.816;3.104;2022-10-24T03:29:16;8.52;;;2.20;;
61038;SDS011;46919;45.816;3.104;2022-10-24T03:31:44;5.22;;;2.03;;
61038;SDS011;46919;45.816;3.104;2022-10-24T03:34:10;7.15;;;2.30;;
61038;SDS011;46919;45.816;3.104;2022-10-24T03:36:36;14.30;;;2.67;;
61038;SDS011;46919;45.816;3.104;2022-10-24T03:39:01;9.73;;;2.50;;
61038;SDS011;46919;45.816;3.104;2022-10-24T03:41:28;8.25;;;2.40;;
61038;SDS011;46919;45.816;3.104;2022-10-24T03:43:53;7.18;;;2.42;;
61038;SDS011;46919;45.816;3.104;2022-10-24T03:46:19;8.15;;;2.47;;
61038;SDS011;46919;45.816;3.104;2022-10-24T03:48:44;11.00;;;2.35;;
61038;SDS011;46919;45.816;3.104;2022-10-24T03:51:10;9.60;;;2.75;;
61038;SDS011;46919;45.816;3.104;2022-10-24T03:53:35;13.82;;;2.58;;
61038;SDS011;46919;45.816;3.104;2022-10-24T03:56:00;7.82;;;2.28;;
61038;SDS011;46919;45.816;3.104;2022-10-24T03:58:26;9.43;;;2.25;;
61038;SDS011;46919;45.816;3.104;2022-10-24T04:00:51;6.95;;;2.25;;
61038;SDS011;46919;45.816;3.104;2022-10-24T04:03:19;9.27;;;2.40;;
61038;SDS011;46919;45.816;3.104;2022-10-24T04:05:44;8.52;;;2.35;;
61038;SDS011;46919;45.816;3.104;2022-10-24T04:08:09;5.88;;;2.65;;
61038;SDS011;46919;45.816;3.104;2022-10-24T04:10:35;8.90;;;2.50;;
61038;SDS011;46919;45.816;3.104;2022-10-24T04:13:00;5.68;;;2.50;;
61038;SDS011;46919;45.816;3.104;2022-10-24T04:15:26;8.27;;;2.20;;
61038;SDS011;46919;45.816;3.104;2022-10-24T04:17:51;8.50;;;2.25;;
61038;SDS011;46919;45.816;3.104;2022-10-24T04:20:17;8.07;;;2.40;;
61038;SDS011;46919;45.816;3.104;2022-10-24T04:22:44;6.30;;;2.42;;
61038;SDS011;46919;45.816;3.104;2022-10-24T04:25:11;8.32;;;2.10;;
61038;SDS011;46919;45.816;3.104;2022-10-24T04:27:36;6.72;;;2.30;;
61038;SDS011;46919;45.816;3.104;2022-10-24T04:30:05;10.52;;;3.10;;
61038;SDS011;46919;45.816;3.104;2022-10-24T04:32:32;5.57;;;2.65;;
61038;SDS011;46919;45.816;3.104;2022-10-24T04:34:57;10.25;;;2.85;;
61038;SDS011;46919;45.816;3.104;2022-10-24T04:37:23;8.00;;;2.80;;
61038;SDS011;46919;45.816;3.104;2022-10-24T04:39:48;7.63;;;2.47;;
61038;SDS011;46919;45.816;3.104;2022-10-24T04:42:13;7.05;;;2.38;;
61038;SDS011;46919;45.816;3.104;2022-10-24T04:44:39;6.63;;;2.25;;
61038;SDS011;46919;45.816;3.104;2022-10-24T04:47:04;9.70;;;2.60;;
61038;SDS011;46919;45.816;3.104;2022-10-24T04:49:30;6.93;;;2.28;;
61038;SDS011;46919;45.816;3.104;2022-10-24T04:51:55;9.20;;;2.42;;
61038;SDS011;46919;45.816;3.104;2022-10-24T04:54:20;10.30;;;2.85;;
61038;SDS011;46919;45.816;3.104;2022-10-24T04:56:46;9.90;;;2.95;;
61038;SDS011;46919;45.816;3.104;2022-10-24T04:59:11;9.80;;;2.90;;
61038;SDS011;46919;45.816;3.104;2022-10-24T05:01:37;9.32;;;2.50;;
61038;SDS011;46919;45.816;3.104;2022-10-24T05:04:02;10.95;;;3.25;;
61038;SDS011;46919;45.816;3.104;2022-10-24T05:06:27;11.35;;;2.72;;
61038;SDS011;46919;45.816;3.104;2022-10-24T05:08:53;10.05;;;3.17;;
61038;SDS011;46919;45.816;3.104;2022-10-24T05:11:18;8.63;;;3.30;;
61038;SDS011;46919;45.816;3.104;2022-10-24T05:13:44;11.50;;;2.72;;
61038;SDS011;46919;45.816;3.104;2022-10-24T05:16:09;9.25;;;2.55;;
61038;SDS011;46919;45.816;3.104;2022-10-24T05:18:34;7.68;;;2.40;;
61038;SDS011;46919;45.816;3.104;2022-10-24T05:21:00;12.05;;;2.60;;
61038;SDS011;46919;45.816;3.104;2022-10-24T05:23:26;7.70;;;2.42;;
61038;SDS011;46919;45.816;3.104;2022-10-24T05:25:52;7.75;;;2.17;;
61038;SDS011;46919;45.816;3.104;2022-10-24T05:28:17;9.68;;;2.60;;
61038;SDS011;46919;45.816;3.104;2022-10-24T05:30:43;6.53;;;2.10;;
61038;SDS011;46919;45.816;3.104;2022-10-24T05:33:08;9.02;;;2.10;;
61038;SDS011;46919;45.816;3.104;2022-10-24T05:35:34;5.68;;;2.05;;
61038;SDS011;46919;45.816;3.104;2022-10-24T05:37:59;13.38;;;2.35;;
61038;SDS011;46919;45.816;3.104;2022-10-24T05:40:25;11.60;;;2.28;;
61038;SDS011;46919;45.816;3.104;2022-10-24T05:42:50;7.68;;;2.30;;
61038;SDS011;46919;45.816;3.104;2022-10-24T05:45:16;8.25;;;2.00;;
61038;SDS011;46919;45.816;3.104;2022-10-24T05:47:42;9.05;;;2.15;;
61038;SDS011;46919;45.816;3.104;2022-10-24T05:50:07;7.85;;;2.58;;
61038;SDS011;46919;45.816;3.104;2022-10-24T05:52:33;6.88;;;2.15;;
61038;SDS011;46919;45.816;3.104;2022-10-24T05:55:00;12.13;;;2.65;;
61038;SDS011;46919;45.816;3.104;2022-10-24T05:57:27;7.60;;;2.13;;
61038;SDS011;46919;45.816;3.104;2022-10-24T05:59:53;8.05;;;2.00;;
61038;SDS011;46919;45.816;3.104;2022-10-24T06:02:19;5.20;;;2.15;;
61038;SDS011;46919;45.816;3.104;2022-10-24T06:04:45;5.93;;;1.80;;
61038;SDS011;46919;45.816;3.104;2022-10-24T06:07:12;6.30;;;1.85;;
61038;SDS011;46919;45.816;3.104;2022-10-24T06:09:39;10.27;;;1.50;;
61038;SDS011;46919;45.816;3.104;2022-10-24T06:12:06;7.72;;;2.00;;
61038;SDS011;46919;45.816;3.104;2022-10-24T06:14:32;7.68;;;1.73;;
61038;SDS011;46919;45.816;3.104;2022-10-24T06:16:58;6.30;;;1.55;;
61038;SDS011;46919;45.816;3.104;2022-10-24T06:19:24;5.45;;;2.17;;
61038;SDS011;46919;45.816;3.104;2022-10-24T06:21:49;7.22;;;1.80;;
61038;SDS011;46919;45.816;3.104;2022-10-24T06:24:14;4.43;;;1.58;;
61038;SDS011;46919;45.816;3.104;2022-10-24T06:26:40;7.45;;;1.52;;
61038;SDS011;46919;45.816;3.104;2022-10-24T06:29:05;3.95;;;1.33;;
61038;SDS011;46919;45.816;3.104;2022-10-24T06:31:31;4.93;;;1.67;;
61038;SDS011;46919;45.816;3.104;2022-10-24T06:33:59;6.63;;;1.63;;
61038;SDS011;46919;45.816;3.104;2022-10-24T06:36:25;4.85;;;1.50;;
61038;SDS011;46919;45.816;3.104;2022-10-24T06:38:50;9.18;;;2.38;;
61038;SDS011;46919;45.816;3.104;2022-10-24T06:41:15;4.10;;;1.50;;
61038;SDS011;46919;45.816;3.104;2022-10-24T06:43:41;5.47;;;1.80;;
61038;SDS011;46919;45.816;3.104;2022-10-24T06:46:08;8.65;;;2.10;;
61038;SDS011;46919;45.816;3.104;2022-10-24T06:48:35;5.05;;;1.92;;
61038;SDS011;46919;45.816;3.104;2022-10-24T06:51:01;10.77;;;8.18;;
61038;SDS011;46919;45.816;3.104;2022-10-24T06:53:27;6.32;;;1.58;;
61038;SDS011;46919;45.816;3.104;2022-10-24T06:55:53;6.53;;;1.33;;
61038;SDS011;46919;45.816;3.104;2022-10-24T06:58:18;7.10;;;1.83;;
61038;SDS011;46919;45.816;3.104;2022-10-24T07:00:43;6.32;;;1.60;;
61038;SDS011;46919;45.816;3.104;2022-10-24T07:03:15;4.50;;;1.30;;
61038;SDS011;46919;45.816;3.104;2022-10-24T07:05:40;8.20;;;1.40;;
61038;SDS011;46919;45.816;3.104;2022-10-24T07:08:06;6.30;;;1.50;;
61038;SDS011;46919;45.816;3.104;2022-10-24T07:10:31;4.93;;;1.45;;
61038;SDS011;46919;45.816;3.104;2022-10-24T07:12:57;49.83;;;4.25;;
61038;SDS011;46919;45.816;3.104;2022-10-24T07:15:23;23.10;;;2.70;;
61038;SDS011;46919;45.816;3.104;2022-10-24T07:17:48;30.75;;;2.90;;
61038;SDS011;46919;45.816;3.104;2022-10-24T07:20:13;5.78;;;1.17;;
61038;SDS011;46919;45.816;3.104;2022-10-24T07:22:39;5.93;;;1.25;;
61038;SDS011;46919;45.816;3.104;2022-10-24T07:25:05;5.20;;;1.48;;
61038;SDS011;46919;45.816;3.104;2022-10-24T07:27:31;3.83;;;1.20;;
61038;SDS011;46919;45.816;3.104;2022-10-24T07:29:58;4.13;;;1.17;;
61038;SDS011;46919;45.816;3.104;2022-10-24T07:32:23;3.05;;;0.98;;
61038;SDS011;46919;45.816;3.104;2022-10-24T07:34:49;6.78;;;1.10;;
61038;SDS011;46919;45.816;3.104;2022-10-24T07:37:15;6.30;;;1.25;;
61038;SDS011;46919;45.816;3.104;2022-10-24T07:39:41;6.82;;;1.20;;
61038;SDS011;46919;45.816;3.104;2022-10-24T07:42:07;6.22;;;1.45;;
61038;SDS011;46919;45.816;3.104;2022-10-24T07:44:33;9.20;;;1.50;;
61038;SDS011;46919;45.816;3.104;2022-10-24T07:46:58;3.03;;;1.15;;
61038;SDS011;46919;45.816;3.104;2022-10-24T07:49:23;5.70;;;1.20;;
61038;SDS011;46919;45.816;3.104;2022-10-24T07:51:49;5.82;;;1.52;;
61038;SDS011;46919;45.816;3.104;2022-10-24T07:54:14;5.55;;;1.30;;
61038;SDS011;46919;45.816;3.104;2022-10-24T07:56:40;3.63;;;1.10;;
61038;SDS011;46919;45.816;3.104;2022-10-24T07:59:05;4.13;;;1.52;;
61038;SDS011;46919;45.816;3.104;2022-10-24T08:01:30;5.40;;;1.20;;
61038;SDS011;46919;45.816;3.104;2022-10-24T08:03:56;6.88;;;1.55;;
61038;SDS011;46919;45.816;3.104;2022-10-24T08:06:23;7.10;;;1.60;;
61038;SDS011;46919;45.816;3.104;2022-10-24T08:08:52;6.60;;;1.63;;
61038;SDS011;46919;45.816;3.104;2022-10-24T08:11:22;7.65;;;1.60;;
61038;SDS011;46919;45.816;3.104;2022-10-24T08:13:51;5.50;;;1.65;;
61038;SDS011;46919;45.816;3.104;2022-10-24T08:16:18;3.85;;;1.25;;
61038;SDS011;46919;45.816;3.104;2022-10-24T08:18:45;7.13;;;1.85;;
61038;SDS011;46919;45.816;3.104;2022-10-24T08:21:12;7.32;;;2.10;;
61038;SDS011;46919;45.816;3.104;2022-10-24T08:23:40;8.95;;;3.20;;
61038;SDS011;46919;45.816;3.104;2022-10-24T08:26:07;10.07;;;2.90;;
61038;SDS011;46919;45.816;3.104;2022-10-24T08:28:35;15.25;;;3.20;;
61038;SDS011;46919;45.816;3.104;2022-10-24T08:31:02;9.65;;;3.17;;
61038;SDS011;46919;45.816;3.104;2022-10-24T08:33:28;13.18;;;2.92;;
61038;SDS011;46919;45.816;3.104;2022-10-24T08:35:56;13.40;;;3.03;;
61038;SDS011;46919;45.816;3.104;2022-10-24T08:38:23;12.25;;;2.83;;
61038;SDS011;46919;45.816;3.104;2022-10-24T08:40:48;9.48;;;2.65;;
61038;SDS011;46919;45.816;3.104;2022-10-24T08:43:14;14.98;;;2.88;;
61038;SDS011;46919;45.816;3.104;2022-10-24T08:45:45;11.02;;;3.17;;
61038;SDS011;46919;45.816;3.104;2022-10-24T08:48:12;17.02;;;2.97;;
61038;SDS011;46919;45.816;3.104;2022-10-24T08:50:44;12.90;;;2.90;;
61038;SDS011;46919;45.816;3.104;2022-10-24T08:53:16;10.57;;;2.60;;
61038;SDS011;46919;45.816;3.104;2022-10-24T08:55:54;12.82;;;2.80;;
61038;SDS011;46919;45.816;3.104;2022-10-24T08:58:34;11.63;;;2.92;;
61038;SDS011;46919;45.816;3.104;2022-10-24T09:01:03;8.93;;;2.60;;
61038;SDS011;46919;45.816;3.104;2022-10-24T09:03:44;11.38;;;2.70;;
61038;SDS011;46919;45.816;3.104;2022-10-24T09:06:16;11.50;;;2.60;;
61038;SDS011;46919;45.816;3.104;2022-10-24T09:14:14;6.63;;;1.38;;
61038;SDS011;46919;45.816;3.104;2022-10-24T09:16:42;4.07;;;1.33;;
61038;SDS011;46919;45.816;3.104;2022-10-24T09:19:12;4.50;;;1.17;;
61038;SDS011;46919;45.816;3.104;2022-10-24T09:21:40;5.15;;;1.33;;
61038;SDS011;46919;45.816;3.104;2022-10-24T09:24:44;4.97;;;1.23;;
61038;SDS011;46919;45.816;3.104;2022-10-24T09:27:16;2.95;;;0.90;;
61038;SDS011;46919;45.816;3.104;2022-10-24T09:29:44;4.53;;;0.93;;
61038;SDS011;46919;45.816;3.104;2022-10-24T09:32:43;6.45;;;0.93;;
61038;SDS011;46919;45.816;3.104;2022-10-24T09:35:05;4.47;;;0.90;;
61038;SDS011;46919;45.816;3.104;2022-10-24T09:37:35;3.92;;;0.60;;
61038;SDS011;46919;45.816;3.104;2022-10-24T09:42:50;4.75;;;0.90;;
61038;SDS011;46919;45.816;3.104;2022-10-24T09:47:45;7.28;;;0.85;;
61038;SDS011;46919;45.816;3.104;2022-10-24T09:50:19;5.65;;;0.73;;
61038;SDS011;46919;45.816;3.104;2022-10-24T09:52:47;3.05;;;0.80;;
61038;SDS011;46919;45.816;3.104;2022-10-24T09:55:16;5.28;;;0.80;;
61038;SDS011;46919;45.816;3.104;2022-10-24T09:57:45;3.97;;;0.98;;
61038;SDS011;46919;45.816;3.104;2022-10-24T10:00:24;4.82;;;1.00;;
61038;SDS011;46919;45.816;3.104;2022-10-24T10:02:57;3.05;;;0.60;;
61038;SDS011;46919;45.816;3.104;2022-10-24T10:05:25;1.85;;;0.50;;
61038;SDS011;46919;45.816;3.104;2022-10-24T10:07:54;1.50;;;0.60;;
61038;SDS011;46919;45.816;3.104;2022-10-24T10:12:57;1.95;;;0.82;;
61038;SDS011;46919;45.816;3.104;2022-10-24T10:15:30;2.90;;;0.80;;
61038;SDS011;46919;45.816;3.104;2022-10-24T10:18:00;2.75;;;0.60;;
61038;SDS011;46919;45.816;3.104;2022-10-24T10:20:44;4.53;;;0.85;;
61038;SDS011;46919;45.816;3.104;2022-10-24T10:23:22;7.00;;;1.05;;
61038;SDS011;46919;45.816;3.104;2022-10-24T10:26:00;3.05;;;0.75;;
61038;SDS011;46919;45.816;3.104;2022-10-24T10:31:46;5.65;;;0.90;;
61038;SDS011;46919;45.816;3.104;2022-10-24T10:40:02;1.92;;;0.73;;
61038;SDS011;46919;45.816;3.104;2022-10-24T10:45:47;4.18;;;0.80;;
61038;SDS011;46919;45.816;3.104;2022-10-24T10:48:37;3.30;;;0.70;;
61038;SDS011;46919;45.816;3.104;2022-10-24T10:57:05;2.15;;;0.65;;
61038;SDS011;46919;45.816;3.104;2022-10-24T10:59:40;3.85;;;0.70;;
61038;SDS011;46919;45.816;3.104;2022-10-24T11:10:31;2.83;;;0.43;;
61038;SDS011;46919;45.816;3.104;2022-10-24T11:13:02;2.55;;;0.60;;
61038;SDS011;46919;45.816;3.104;2022-10-24T11:15:33;1.55;;;0.60;;
61038;SDS011;46919;45.816;3.104;2022-10-24T11:20:47;4.55;;;0.60;;
61038;SDS011;46919;45.816;3.104;2022-10-24T11:26:01;3.50;;;0.63;;
61038;SDS011;46919;45.816;3.104;2022-10-24T11:31:54;4.45;;;0.80;;
61038;SDS011;46919;45.816;3.104;2022-10-24T11:34:44;1.55;;;0.65;;
61038;SDS011;46919;45.816;3.104;2022-10-24T11:37:25;3.03;;;0.63;;
61038;SDS011;46919;45.816;3.104;2022-10-24T11:39:57;5.65;;;0.85;;
61038;SDS011;46919;45.816;3.104;2022-10-24T11:42:36;2.25;;;0.70;;
61038;SDS011;46919;45.816;3.104;2022-10-24T11:45:13;3.60;;;0.77;;
61038;SDS011;46919;45.816;3.104;2022-10-24T11:58:45;3.53;;;0.75;;
61038;SDS011;46919;45.816;3.104;2022-10-24T12:04:34;3.08;;;0.80;;
61038;SDS011;46919;45.816;3.104;2022-10-24T12:16:10;4.70;;;0.80;;
61038;SDS011;46919;45.816;3.104;2022-10-24T12:18:45;2.92;;;0.70;;
61038;SDS011;46919;45.816;3.104;2022-10-24T12:21:16;3.28;;;0.77;;
61038;SDS011;46919;45.816;3.104;2022-10-24T12:23:51;5.97;;;0.98;;
61038;SDS011;46919;45.816;3.104;2022-10-24T12:26:19;3.50;;;0.93;;
61038;SDS011;46919;45.816;3.104;2022-10-24T12:28:56;1.67;;;0.68;;
61038;SDS011;46919;45.816;3.104;2022-10-24T12:31:31;4.20;;;1.10;;
61038;SDS011;46919;45.816;3.104;2022-10-24T12:37:03;2.30;;;0.88;;
61038;SDS011;46919;45.816;3.104;2022-10-24T12:39:45;5.45;;;0.93;;
61038;SDS011;46919;45.816;3.104;2022-10-24T12:49:58;2.63;;;1.00;;
61038;SDS011;46919;45.816;3.104;2022-10-24T12:58:26;4.05;;;1.00;;
61038;SDS011;46919;45.816;3.104;2022-10-24T13:01:10;5.03;;;1.13;;
61038;SDS011;46919;45.816;3.104;2022-10-24T13:14:26;4.10;;;0.90;;
61038;SDS011;46919;45.816;3.104;2022-10-24T13:20:16;4.97;;;1.00;;
61038;SDS011;46919;45.816;3.104;2022-10-24T13:22:44;3.10;;;0.88;;
61038;SDS011;46919;45.816;3.104;2022-10-24T13:25:43;2.60;;;0.85;;
61038;SDS011;46919;45.816;3.104;2022-10-24T13:28:28;2.35;;;0.68;;
61038;SDS011;46919;45.816;3.104;2022-10-24T13:30:48;3.20;;;0.80;;
61038;SDS011;46919;45.816;3.104;2022-10-24T13:33:44;4.72;;;0.88;;
61038;SDS011;46919;45.816;3.104;2022-10-24T13:41:23;2.58;;;0.90;;
61038;SDS011;46919;45.816;3.104;2022-10-24T13:43:56;2.88;;;0.70;;
61038;SDS011;46919;45.816;3.104;2022-10-24T13:46:29;5.00;;;0.90;;
61038;SDS011;46919;45.816;3.104;2022-10-24T13:49:00;3.40;;;0.85;;
61038;SDS011;46919;45.816;3.104;2022-10-24T13:51:31;3.20;;;0.90;;
61038;SDS011;46919;45.816;3.104;2022-10-24T13:54:19;3.33;;;0.93;;
61038;SDS011;46919;45.816;3.104;2022-10-24T13:56:47;3.35;;;0.90;;
61038;SDS011;46919;45.816;3.104;2022-10-24T13:59:32;2.25;;;0.80;;
61038;SDS011;46919;45.816;3.104;2022-10-24T14:02:04;1.67;;;0.60;;
61038;SDS011;46919;45.816;3.104;2022-10-24T14:04:37;2.22;;;0.63;;
61038;SDS011;46919;45.816;3.104;2022-10-24T14:07:04;3.50;;;0.65;;
61038;SDS011;46919;45.816;3.104;2022-10-24T14:09:42;2.13;;;0.70;;
61038;SDS011;46919;45.816;3.104;2022-10-24T14:12:20;3.28;;;0.63;;
61038;SDS011;46919;45.816;3.104;2022-10-24T14:14:49;1.88;;;0.65;;
61038;SDS011;46919;45.816;3.104;2022-10-24T14:19:49;4.45;;;0.70;;
61038;SDS011;46919;45.816;3.104;2022-10-24T14:22:18;2.30;;;0.90;;
61038;SDS011;46919;45.816;3.104;2022-10-24T14:25:04;3.60;;;0.80;;
61038;SDS011;46919;45.816;3.104;2022-10-24T14:27:48;2.85;;;0.90;;
61038;SDS011;46919;45.816;3.104;2022-10-24T14:30:19;1.67;;;0.60;;
61038;SDS011;46919;45.816;3.104;2022-10-24T14:32:47;2.25;;;1.00;;
61038;SDS011;46919;45.816;3.104;2022-10-24T14:35:12;2.65;;;0.90;;
61038;SDS011;46919;45.816;3.104;2022-10-24T14:37:39;2.05;;;0.70;;
61038;SDS011;46919;45.816;3.104;2022-10-24T14:40:09;3.90;;;0.80;;
61038;SDS011;46919;45.816;3.104;2022-10-24T14:42:40;2.13;;;0.77;;
61038;SDS011;46919;45.816;3.104;2022-10-24T14:45:19;4.40;;;0.82;;
61038;SDS011;46919;45.816;3.104;2022-10-24T14:47:49;3.22;;;0.70;;
61038;SDS011;46919;45.816;3.104;2022-10-24T14:50:36;3.20;;;0.80;;
61038;SDS011;46919;45.816;3.104;2022-10-24T14:53:04;3.60;;;0.80;;
61038;SDS011;46919;45.816;3.104;2022-10-24T14:55:30;4.22;;;0.80;;
61038;SDS011;46919;45.816;3.104;2022-10-24T14:57:56;1.73;;;0.60;;
61038;SDS011;46919;45.816;3.104;2022-10-24T15:00:23;3.50;;;0.70;;
61038;SDS011;46919;45.816;3.104;2022-10-24T15:02:53;2.75;;;0.80;;
61038;SDS011;46919;45.816;3.104;2022-10-24T15:07:54;2.42;;;0.90;;
61038;SDS011;46919;45.816;3.104;2022-10-24T15:10:30;2.78;;;0.75;;
61038;SDS011;46919;45.816;3.104;2022-10-24T15:13:00;2.95;;;0.60;;
61038;SDS011;46919;45.816;3.104;2022-10-24T15:15:31;1.75;;;0.70;;
61038;SDS011;46919;45.816;3.104;2022-10-24T15:18:15;4.55;;;0.80;;
61038;SDS011;46919;45.816;3.104;2022-10-24T15:20:41;1.60;;;0.70;;
61038;SDS011;46919;45.816;3.104;2022-10-24T15:23:20;1.45;;;0.80;;
61038;SDS011;46919;45.816;3.104;2022-10-24T15:28:43;4.13;;;0.88;;
61038;SDS011;46919;45.816;3.104;2022-10-24T15:31:20;3.05;;;0.60;;
61038;SDS011;46919;45.816;3.104;2022-10-24T15:33:47;7.35;;;0.70;;
61038;SDS011;46919;45.816;3.104;2022-10-24T15:36:20;4.53;;;1.02;;
61038;SDS011;46919;45.816;3.104;2022-10-24T15:39:01;3.42;;;0.70;;
61038;SDS011;46919;45.816;3.104;2022-10-24T15:41:31;3.15;;;0.88;;
61038;SDS011;46919;45.816;3.104;2022-10-24T15:43:57;4.32;;;0.90;;
61038;SDS011;46919;45.816;3.104;2022-10-24T15:46:23;3.15;;;0.65;;
61038;SDS011;46919;45.816;3.104;2022-10-24T15:48:50;2.95;;;0.70;;
61038;SDS011;46919;45.816;3.104;2022-10-24T15:51:18;2.85;;;0.80;;
61038;SDS011;46919;45.816;3.104;2022-10-24T15:53:47;3.63;;;0.70;;
61038;SDS011;46919;45.816;3.104;2022-10-24T15:56:14;2.45;;;0.88;;
61038;SDS011;46919;45.816;3.104;2022-10-24T15:58:40;3.55;;;0.70;;
61038;SDS011;46919;45.816;3.104;2022-10-24T16:01:06;1.88;;;0.70;;
61038;SDS011;46919;45.816;3.104;2022-10-24T16:03:32;4.10;;;2.35;;
61038;SDS011;46919;45.816;3.104;2022-10-24T16:05:59;3.88;;;0.95;;
61038;SDS011;46919;45.816;3.104;2022-10-24T16:08:28;7.05;;;1.17;;
61038;SDS011;46919;45.816;3.104;2022-10-24T16:10:54;3.38;;;1.00;;
61038;SDS011;46919;45.816;3.104;2022-10-24T16:13:20;3.42;;;0.70;;
61038;SDS011;46919;45.816;3.104;2022-10-24T16:15:46;4.38;;;1.00;;
61038;SDS011;46919;45.816;3.104;2022-10-24T16:18:12;2.95;;;0.80;;
61038;SDS011;46919;45.816;3.104;2022-10-24T16:20:38;4.78;;;0.60;;
61038;SDS011;46919;45.816;3.104;2022-10-24T16:23:04;5.70;;;1.10;;
61038;SDS011;46919;45.816;3.104;2022-10-24T16:25:31;1.45;;;0.90;;
61038;SDS011;46919;45.816;3.104;2022-10-24T16:27:59;3.05;;;0.80;;
61038;SDS011;46919;45.816;3.104;2022-10-24T16:30:26;3.45;;;0.80;;
61038;SDS011;46919;45.816;3.104;2022-10-24T16:32:53;3.33;;;0.82;;
61038;SDS011;46919;45.816;3.104;2022-10-24T16:35:24;4.20;;;0.82;;
61038;SDS011;46919;45.816;3.104;2022-10-24T16:37:52;3.45;;;0.95;;
61038;SDS011;46919;45.816;3.104;2022-10-24T16:40:18;1.75;;;0.80;;
61038;SDS011;46919;45.816;3.104;2022-10-24T16:42:44;3.78;;;0.90;;
61038;SDS011;46919;45.816;3.104;2022-10-24T16:45:09;3.25;;;1.08;;
61038;SDS011;46919;45.816;3.104;2022-10-24T16:47:35;3.13;;;1.20;;
61038;SDS011;46919;45.816;3.104;2022-10-24T16:50:01;5.60;;;1.02;;
61038;SDS011;46919;45.816;3.104;2022-10-24T16:52:27;5.53;;;0.95;;
61038;SDS011;46919;45.816;3.104;2022-10-24T16:54:52;2.35;;;0.90;;
61038;SDS011;46919;45.816;3.104;2022-10-24T16:57:19;6.50;;;1.30;;
61038;SDS011;46919;45.816;3.104;2022-10-24T16:59:45;3.28;;;0.98;;
61038;SDS011;46919;45.816;3.104;2022-10-24T17:02:11;6.43;;;0.90;;
61038;SDS011;46919;45.816;3.104;2022-10-24T17:04:38;4.13;;;1.02;;
61038;SDS011;46919;45.816;3.104;2022-10-24T17:07:03;5.57;;;0.90;;
61038;SDS011;46919;45.816;3.104;2022-10-24T17:09:29;11.40;;;6.47;;
61038;SDS011;46919;45.816;3.104;2022-10-24T17:11:54;10.93;;;6.55;;
61038;SDS011;46919;45.816;3.104;2022-10-24T17:14:23;7.35;;;1.10;;
61038;SDS011;46919;45.816;3.104;2022-10-24T17:16:49;5.20;;;1.08;;
61038;SDS011;46919;45.816;3.104;2022-10-24T17:19:15;4.30;;;1.63;;
61038;SDS011;46919;45.816;3.104;2022-10-24T17:21:40;5.72;;;1.20;;
61038;SDS011;46919;45.816;3.104;2022-10-24T17:24:08;4.10;;;1.05;;